Station info - map view · info · telemetry · weather · raw · status · beacons · messages · bulletins · browse · moving · my account
Callsign, ship name or locator: Clear       
It is possible to search using wildcards (*?) after a prefix. Example: OH*
APRS station DO6FG-14 - show graphs
Map loading...
Comment: Frank QRV BM DMR TG2629
Location: 50°58.59' N 13°16.63' E - locator JO60PX34GI - show map - static map
4.2 miles Southwest bearing 247° from Reinsberg, Direktionsbezirk Chemnitz, Saxony, Germany [?]
5.2 miles South bearing 191° from Nossen, Saxony, Germany
46.6 miles Southeast bearing 122° from Leipzig, Direktionsbezirk Leipzig, Saxony, Germany
79.3 miles Northwest bearing 321° from Prague, Hlavní Mesto Praha, Czech Republic
Last position: 2021-04-20 20:15:36 EDT (7h6m ago)
2021-04-21 02:15:36 CEST local time at Reinsberg, Germany [?]
Altitude: 1359 ft
Course: 180°
Speed: 5 MPH
Device: Open Source: APRSdroid (app, Android)
Last path: DO6FG-14>APDR16 via TCPIP*,qAC,T2FRA
Positions stored: 522924
Packet rate: 40 seconds between packets on average during 1968 seconds.
Other SSIDs: DO6FG DO6FG-9 DO6FG-B DO6FG-N
Stations near current position of DO6FG-14 - show more
callsign distance last heard - EDT      callsign distance last heard - EDT
D170529560.5 miles 62°2021-04-08 03:59:32 D170090904.3 miles 111°2021-04-08 02:31:08
DL1JAD4.4 miles 145°2021-04-01 02:58:36 DB0FBG4.5 miles 136°2021-04-21 03:20:17
DM5LG4.5 miles 152°2021-04-01 05:24:46 DM5LG-104.5 miles 152°2021-04-17 19:07:14
ER-DB0FBG4.5 miles 136°2021-04-21 03:21:14 DL1RUN-95.5 miles 29°2021-04-20 07:51:24
DD6MS6.7 miles 268°2021-04-15 12:18:08 DO1CJ11.7 miles 284°2021-04-21 03:21:17
DO1CJ-1311.7 miles 284°2021-04-10 04:55:17 DO1CJ-911.7 miles 284°2021-04-18 12:03:27
DO7THW-112.3 miles 330°2021-04-04 10:18:57 DL1JBO12.3 miles 279°2021-04-21 03:22:04
DL1JBO-912.5 miles 279°2021-04-20 06:21:19 DO1MIT-912.5 miles 272°2021-04-05 04:57:25
S037072612.7 miles 15°2021-04-10 09:53:30 S0370726_12.8 miles 15°2021-04-10 09:53:13
DM0MW13.3 miles 273°2021-04-21 02:55:50 DL3JIN-913.3 miles 275°2021-04-15 07:13:34
Stations which heard DO6FG-14 directly on radio –
callsign pkts first heard - EDT last heard longest (tx => rx) longest at - EDT
DB0LMM 1 2021-04-13 13:50:23 2021-04-13 13:50:23 JO60IQ > JO61EI 46.9 miles 341° 2021-04-13 13:50:23
DB0REN 11 2021-04-13 13:49:54 2021-04-13 15:02:42 JO60IQ > JO50RK 59.5 miles 253° 2021-04-13 13:49:54
DB0LP 3 2021-04-13 16:20:45 2021-04-13 18:14:45 JN69CK > JN59UD 29.4 miles 228° 2021-04-13 16:20:45
DM0MW 13 2021-04-13 12:58:52 2021-04-13 14:21:11 JO60FP > JO60LX 33.3 miles 44° 2021-04-13 14:21:11
DB0WBE 3 2021-04-13 12:44:02 2021-04-13 12:50:03 JO60PX > JO61SL 36.8 miles 16° 2021-04-13 12:44:02
DB0FBG 23 2021-04-13 12:45:10 2021-04-13 13:36:27 JO60KU > JO60QW 22.7 miles 75° 2021-04-13 13:36:27
DL3NDS 3 2021-04-13 15:25:34 2021-04-13 15:29:40 JO60BA > JO60AB 5.2 miles 290° 2021-04-13 15:29:40
DH2RL-2 5 2021-04-13 18:20:50 2021-04-13 20:14:06 JN58UD > JN68CQ 43.2 miles 29° 2021-04-13 19:41:24
DB0MAK 23 2021-04-13 15:02:37 2021-04-13 15:39:47 JO60AH > JO60BA 21.8 miles 167° 2021-04-13 15:02:37
DB0PM 32 2021-04-13 19:10:48 2021-04-13 20:15:05 JN58TL > JN57WS 51.9 miles 166° 2021-04-13 19:10:48
DL3RCG-10 1 2021-04-13 20:05:51 2021-04-13 20:05:51 JN58VD > JN68CN 33.4 miles 37° 2021-04-13 20:05:51
DB0POB 28 2021-04-13 18:10:38 2021-04-13 19:10:18 JN68BX > JN58QP 41.8 miles 236° 2021-04-13 18:10:38
DB0OAL 17 2021-04-13 19:10:23 2021-04-13 20:18:07 JN58TL > JN57JN 74.6 miles 211° 2021-04-13 19:10:23
DB0HHB 4 2021-04-13 16:09:35 2021-04-13 18:14:15 JN69BN > JN69LF 43.1 miles 122° 2021-04-13 16:09:35
DM0FFL-10 5 2021-04-13 19:32:26 2021-04-13 20:16:05 JN58VD > JN68BN 33.7 miles 29° 2021-04-13 19:40:17
DG1JLA-3 27 2021-04-13 12:44:28 2021-04-13 13:40:03 JO60PX > JO60LV 13.9 miles 249° 2021-04-13 12:44:28
DG4MLA-10 9 2021-04-13 19:23:00 2021-04-13 19:32:56 JN58TE > JN58TG 4.9 miles 321° 2021-04-13 19:32:56
DO4DR-10 4 2021-04-13 13:48:18 2021-04-13 14:21:09 JO60FP > JO60GT 13.6 miles 20° 2021-04-13 14:21:09
OE7XGR-10 13 2021-04-13 19:09:18 2021-04-13 20:25:11 JN58TM > JN57UB 99.6 miles 178° 2021-04-13 19:09:18
DB0LS 2 2021-04-13 12:43:02 2021-04-13 12:44:47 JO60PX > JO61VM 45.0 miles 32° 2021-04-13 12:44:47
DB0FGB 32 2021-04-13 13:55:55 2021-04-13 16:12:41 JO60HQ > JO50WB 55.6 miles 219° 2021-04-13 13:55:55
DB0HOB-10 5 2021-04-13 19:24:17 2021-04-13 20:25:15 JN58TH > JN67DR 48.5 miles 143° 2021-04-13 19:24:17
DL3CK-10 1 2021-04-13 19:03:36 2021-04-13 19:03:36 JN58TN > JN58SS 13.4 miles 345° 2021-04-13 19:03:36
DH3KW-2 6 2021-04-13 16:22:47 2021-04-13 16:31:20 JN69BJ > JN69BH 6.4 miles 207° 2021-04-13 16:22:47
DC1RS-10 1 2021-04-13 20:18:06 2021-04-13 20:18:06 JN58VD > JN68KT 68.2 miles 49° 2021-04-13 20:18:06
DL3CSM-10 18 2021-04-13 19:15:18 2021-04-13 20:25:43 JN58VD > JN58UH 11.9 miles 345° 2021-04-13 19:39:47
DM0RLB-10 35 2021-04-13 12:42:57 2021-04-13 14:32:15 JO60DN > JO61JA 38.8 miles 33° 2021-04-13 14:32:15
DO1AKW-2 3 2021-04-13 15:56:59 2021-04-13 16:02:02 JN69BQ > JN69EQ 10.9 miles 85° 2021-04-13 16:01:02
DB0TVM 11 2021-04-13 19:35:11 2021-04-13 20:24:11 JN58VD > JN58SE 9.9 miles 276° 2021-04-13 20:04:05
DB0RDH 63 2021-04-13 16:56:32 2021-04-13 18:47:12 JN58VQ > JN68KW 51.8 miles 71° 2021-04-13 18:47:12
DB0HZS 1 2021-04-13 20:01:32 2021-04-13 20:01:32 JN58VD > JN57PO 42.9 miles 208° 2021-04-13 20:01:32

Only position packets which were originated by the station are shown here. The range statistics show some extra long hops, because some digipeaters do not correctly add themselves to the digipeater path. Please check the raw packets.
About this site
This page shows real-time information collected from the Automatic Position Reporting System Internet network (APRS-IS). APRS is used by amateur (ham) radio operators to transmit real-time position information, weather data, telemetry and messages over the radio. A vehicle equipped with a GPS receiver, a VHF transmitter or HF transceiver and a small computer device called a tracker transmits it's location, speed and course in a small data packet, which is then received by a nearby iGate receiving site which forwards the packet on the Internet. Systems connected to the Internet can send information on the APRS-IS without a radio transmitter, or collect and display information transmitted anywhere in the world.
User guide · FAQ · Blog · Discussion group · Linking to aprs.fi · AIS sites · Service status · Database statistics · Advertising on aprs.fi · Technical details · API · Change log · Planned changes · Credits and thanks · Terms Of Service · iPhone/iPad APRS